Time;durP1;ratioP1;P1;durP2;ratioP2;P2;SDS_P1;SDS_P2;PMS_P1;PMS_P2;Temp;Humidity;BMP_temperature;BMP_pressure;BME280_temperature;BME280_humidity;BME280_pressure;Samples;Min_cycle;Max_cycle;Signal;HPM_P1;HPM_P2
2021/10/29 03:22:42;;;;;;;;;;;;;;;7.24;100.00;99299.56;5071293;23;19929;-81
2021/10/29 03:25:08;;;;;;;;;;;;;;;7.24;100.00;99294.31;5011437;28;20368;-81
2021/10/29 03:27:34;;;;;;;;;;;;;;;7.26;100.00;99298.63;5010641;28;19937;-82
2021/10/29 03:29:59;;;;;;;;;;;;;;;7.27;100.00;99299.47;5012019;28;19918;-82
2021/10/29 03:32:25;;;;;;;;;;;;;;;7.27;100.00;99287.16;5011858;28;19917;-82
2021/10/29 03:34:50;;;;;;;;;;;;;;;7.30;100.00;99275.63;5011877;28;20004;-83
2021/10/29 03:37:41;;;;;;;;;;;;;;;7.33;100.00;99278.16;5009853;28;19925;-81
2021/10/29 03:40:22;;;;;;;;;;;;;;;7.33;100.00;99283.44;5011108;28;19921;-83
2021/10/29 03:43:37;;;;;;;;;;;;;;;7.32;100.00;99289.59;5011122;28;20360;-82
2021/10/29 03:45:41;;;;;;;;;;;;;;;7.37;100.00;99284.16;5003761;28;20012;-81
2021/10/29 03:48:07;;;;;;;;;;;;;;;7.34;100.00;99274.63;5011953;28;19965;-83
2021/10/29 03:50:35;;;;;;;;;;;;;;;7.36;100.00;99266.66;5010391;28;19921;-82
2021/10/29 03:53:37;;;;;;;;;;;;;;;6.07;100.00;99274.69;5011718;28;19952;-81
2021/10/29 03:55:54;;;;;;;;;;;;;;;4.91;100.00;99267.59;5007493;28;19917;-81
2021/10/29 03:58:19;;;;;;;;;;;;;;;4.64;100.00;99270.09;5011091;28;19928;-83
2021/10/29 04:00:44;;;;;;;;;;;;;;;4.33;100.00;99277.91;5011523;28;20376;-81
2021/10/29 04:03:10;;;;;;;;;;;;;;;4.06;100.00;99274.19;5011479;28;20508;-80
2021/10/29 04:05:35;;;;;;;;;;;;;;;3.79;100.00;99269.56;5010336;28;19922;-81
2021/10/29 04:08:01;;;;;;;;;;;;;;;3.73;100.00;99274.09;5011527;28;19917;-82
2021/10/29 04:10:29;;;;;;;;;;;;;;;3.66;100.00;99277.78;5013553;28;19927;-81
2021/10/29 04:12:54;;;;;;;;;;;;;;;3.55;100.00;99271.00;5015083;28;19921;-81
2021/10/29 04:15:20;;;;;;;;;;;;;;;3.45;100.00;99270.34;5015220;28;19914;-81
2021/10/29 04:17:45;;;;;;;;;;;;;;;3.34;100.00;99272.34;5014781;28;20420;-82
2021/10/29 04:20:12;;;;;;;;;;;;;;;3.42;100.00;99269.56;5014259;28;20344;-81
2021/10/29 04:22:38;;;;;;;;;;;;;;;3.37;100.00;99261.78;5009134;28;19936;-81
2021/10/29 04:25:03;;;;;;;;;;;;;;;3.21;100.00;99256.03;5014872;28;20364;-83
2021/10/29 04:27:33;;;;;;;;;;;;;;;3.23;100.00;99262.09;5014926;28;19968;-81
2021/10/29 04:30:00;;;;;;;;;;;;;;;3.21;100.00;99255.19;5014274;28;19921;-82
2021/10/29 04:32:25;;;;;;;;;;;;;;;3.05;100.00;99255.50;5014817;28;19918;-81
2021/10/29 04:34:51;;;;;;;;;;;;;;;3.04;100.00;99256.38;5013859;28;19932;-82
2021/10/29 04:37:17;;;;;;;;;;;;;;;2.93;100.00;99255.72;5013363;28;20291;-82
2021/10/29 04:39:42;;;;;;;;;;;;;;;2.85;99.44;99258.50;5014623;28;19917;-81
2021/10/29 04:42:07;;;;;;;;;;;;;;;2.77;99.23;99255.16;5014456;28;20013;-82
2021/10/29 04:44:33;;;;;;;;;;;;;;;2.79;98.36;99258.59;5014758;28;19922;-82
2021/10/29 04:46:58;;;;;;;;;;;;;;;2.70;98.20;99254.44;5014237;28;19925;-82
2021/10/29 04:49:23;;;;;;;;;;;;;;;2.70;97.35;99250.97;5014866;28;19928;-81
2021/10/29 04:51:49;;;;;;;;;;;;;;;2.68;97.29;99251.00;5012950;28;19917;-81
2021/10/29 04:54:15;;;;;;;;;;;;;;;2.57;96.95;99252.06;5014504;28;19971;-82
2021/10/29 04:56:43;;;;;;;;;;;;;;;2.51;96.10;99250.44;5014389;28;20403;-82
2021/10/29 07:52:01;;;;;;;;;;;;;;;3.66;94.49;99210.50;4942962;28;19955;-82
2021/10/29 07:54:26;;;;;;;;;;;;;;;3.69;93.82;99215.66;4946639;29;19927;-82
2021/10/29 07:56:52;;;;;;;;;;;;;;;3.71;93.11;99211.25;4947594;29;20381;-82
2021/10/29 07:59:21;;;;;;;;;;;;;;;3.75;92.50;99205.03;4946948;29;20455;-81
2021/10/29 08:01:47;;;;;;;;;;;;;;;3.80;92.01;99208.41;4947473;29;19974;-81
2021/10/29 08:04:12;;;;;;;;;;;;;;;3.80;91.34;99208.41;4946005;29;19919;-81
2021/10/29 08:06:38;;;;;;;;;;;;;;;3.81;90.87;99207.50;4947147;29;19933;-82
2021/10/29 08:09:03;;;;;;;;;;;;;;;3.81;90.12;99204.91;4962161;28;20337;-82
2021/10/29 08:11:28;;;;;;;;;;;;;;;3.88;89.81;99204.72;4947540;29;19922;-81
2021/10/29 08:13:54;;;;;;;;;;;;;;;3.90;89.17;99201.16;4947137;29;19919;-82
2021/10/29 08:16:19;;;;;;;;;;;;;;;3.92;88.89;99196.75;4946756;29;20334;-83
2021/10/29 08:18:45;;;;;;;;;;;;;;;3.96;88.36;99198.41;4946048;29;19974;-83
2021/10/29 08:21:11;;;;;;;;;;;;;;;4.01;87.92;99206.16;4947136;29;20357;-81
2021/10/29 08:23:37;;;;;;;;;;;;;;;4.05;88.01;99202.53;4946901;29;19919;-82
2021/10/29 08:26:02;;;;;;;;;;;;;;;4.08;88.24;99196.34;4961448;28;19922;-82
2021/10/29 08:28:28;;;;;;;;;;;;;;;4.10;87.81;99200.69;4947346;28;20001;-83
2021/10/29 08:30:53;;;;;;;;;;;;;;;4.06;87.38;99201.63;4947031;28;20050;-83
2021/10/29 08:33:19;;;;;;;;;;;;;;;4.10;87.47;99195.44;4946670;29;20029;-82
2021/10/29 08:35:44;;;;;;;;;;;;;;;4.15;87.37;99198.78;4945290;29;20420;-83
2021/10/29 08:38:10;;;;;;;;;;;;;;;4.19;87.13;99192.53;4946967;29;19922;-81
2021/10/29 08:40:36;;;;;;;;;;;;;;;4.21;86.83;99181.16;4946641;29;19973;-81
2021/10/29 08:43:01;;;;;;;;;;;;;;;4.23;86.61;99181.97;4946898;28;19930;-82
2021/10/29 08:45:27;;;;;;;;;;;;;;;4.24;86.45;99181.94;4946631;29;19990;-82
2021/10/29 08:47:54;;;;;;;;;;;;;;;4.28;86.24;99175.72;4946517;29;19921;-82
2021/10/29 08:50:19;;;;;;;;;;;;;;;4.32;86.04;99172.13;4944470;29;19923;-82
2021/10/29 08:52:45;;;;;;;;;;;;;;;4.35;85.90;99179.03;4946522;29;20015;-83
2021/10/29 08:55:11;;;;;;;;;;;;;;;4.38;85.76;99176.31;4945947;29;19929;-82
2021/10/29 08:57:37;;;;;;;;;;;;;;;4.40;85.83;99171.88;4946400;29;20013;-82
2021/10/29 09:00:12;;;;;;;;;;;;;;;4.46;85.63;99170.88;4946123;29;20263;-82
2021/10/29 09:02:43;;;;;;;;;;;;;;;4.47;85.39;99168.22;4946155;29;19929;-82
2021/10/29 09:07:55;;;;;;;;;;;;;;;4.51;85.39;99164.56;4936840;29;19919;-83
2021/10/29 09:16:30;;;;;;;;;;;;;;;4.64;85.63;99153.75;4946279;29;19930;-82
2021/10/29 09:32:30;;;;;;;;;;;;;;;4.82;86.67;99126.97;4945772;29;19925;-83
2021/10/29 09:34:58;;;;;;;;;;;;;;;4.89;87.16;99127.66;4944462;29;20387;-84
2021/10/29 09:37:24;;;;;;;;;;;;;;;4.89;87.26;99123.25;4944651;29;19918;-83
2021/10/29 09:39:52;;;;;;;;;;;;;;;4.91;87.51;99125.81;4945963;29;20013;-83
2021/10/29 09:42:20;;;;;;;;;;;;;;;4.94;87.46;99114.38;4945748;29;19930;-82
2021/10/29 09:44:47;;;;;;;;;;;;;;;4.96;87.40;99102.06;4928023;29;19922;-83
2021/10/29 09:47:19;;;;;;;;;;;;;;;5.02;87.91;99102.72;4945830;29;19922;-83
2021/10/29 09:49:52;;;;;;;;;;;;;;;4.99;87.68;99108.06;4944136;29;19925;-82
2021/10/29 09:57:31;;;;;;;;;;;;;;;5.06;87.92;99099.09;4945159;29;20273;-82
2021/10/29 10:00:00;;;;;;;;;;;;;;;5.16;88.24;99096.19;4944408;28;19922;-83
2021/10/29 10:02:26;;;;;;;;;;;;;;;5.17;88.21;99101.41;4944987;29;19918;-82
2021/10/29 10:04:52;;;;;;;;;;;;;;;5.18;88.55;99092.59;4943894;29;19919;-82
2021/10/29 10:07:22;;;;;;;;;;;;;;;5.17;88.38;99100.53;4944467;29;19962;-82
2021/10/29 10:09:51;;;;;;;;;;;;;;;5.19;88.46;99104.81;4960151;28;19922;-84
2021/10/29 10:12:18;;;;;;;;;;;;;;;5.21;88.82;99100.38;4944186;29;19941;-82
2021/10/29 10:14:44;;;;;;;;;;;;;;;5.24;89.15;99102.91;4945063;29;19918;-82
2021/10/29 10:17:09;;;;;;;;;;;;;;;5.26;89.38;99095.84;4945248;28;20263;-84
2021/10/29 10:19:35;;;;;;;;;;;;;;;5.27;89.49;99097.56;4958129;28;19954;-82
2021/10/29 10:22:02;;;;;;;;;;;;;;;5.29;89.48;99100.13;4944612;29;19922;-83
2021/10/29 10:24:30;;;;;;;;;;;;;;;5.31;89.65;99084.31;4944101;29;19929;-83
2021/10/29 10:45:47;;;;;;;;;;;;;;;5.42;90.90;99050.69;4944196;29;19926;-82
2021/10/29 10:48:12;;;;;;;;;;;;;;;5.44;91.11;99049.72;4943914;29;19938;-82
2021/10/29 10:50:43;;;;;;;;;;;;;;;5.43;90.91;99050.63;4941625;29;20012;-82
2021/10/29 10:53:12;;;;;;;;;;;;;;;5.43;90.93;99044.53;4944283;29;20354;-83
2021/10/29 10:55:58;;;;;;;;;;;;;;;5.51;91.13;99041.63;4944594;29;19919;-84
2021/10/29 10:58:31;;;;;;;;;;;;;;;5.48;91.35;99039.97;4944144;29;19922;-84
2021/10/29 11:01:07;;;;;;;;;;;;;;;5.52;91.52;99032.81;4944495;29;20030;-82
2021/10/29 11:03:53;;;;;;;;;;;;;;;5.49;91.39;99023.28;4943703;29;19918;-83
2021/10/29 11:06:40;;;;;;;;;;;;;;;5.55;91.76;99025.72;4944572;29;19918;-84
2021/10/29 11:11:56;;;;;;;;;;;;;;;5.59;92.16;99014.16;4944572;29;19961;-83
2021/10/29 11:14:33;;;;;;;;;;;;;;;5.60;92.49;99015.91;4944627;29;20289;-84
2021/10/29 11:16:59;;;;;;;;;;;;;;;5.64;92.53;99011.38;4944416;29;19919;-83
2021/10/29 11:19:34;;;;;;;;;;;;;;;5.62;92.57;99005.34;4943773;29;19970;-84
2021/10/29 11:21:59;;;;;;;;;;;;;;;5.67;92.85;98998.13;4948333;29;19918;-83
2021/10/29 11:24:27;;;;;;;;;;;;;;;5.66;92.97;99006.06;4948221;29;19918;-83
2021/10/29 11:27:01;;;;;;;;;;;;;;;5.68;93.06;98991.97;4947261;29;20024;-84
2021/10/29 11:29:26;;;;;;;;;;;;;;;5.73;93.34;98989.19;4948110;29;19922;-82
2021/10/29 11:31:52;;;;;;;;;;;;;;;5.73;93.41;98991.81;4947757;29;20030;-83
2021/10/29 11:34:18;;;;;;;;;;;;;;;5.72;93.31;98983.06;4946637;29;20005;-83
2021/10/29 11:36:45;;;;;;;;;;;;;;;5.77;93.67;98986.38;4948306;29;19923;-83
2021/10/29 11:39:14;;;;;;;;;;;;;;;5.79;93.95;98979.31;4948140;29;19918;-83
2021/10/29 11:41:41;;;;;;;;;;;;;;;5.84;94.38;98973.88;4947863;29;19926;-82
2021/10/29 11:44:08;;;;;;;;;;;;;;;5.87;94.68;98967.63;4947567;29;19926;-83
2021/10/29 11:46:34;;;;;;;;;;;;;;;5.85;94.63;98962.44;4947442;29;19974;-82
2021/10/29 11:49:02;;;;;;;;;;;;;;;5.85;94.81;98959.81;4946526;29;19961;-83
2021/10/29 11:51:28;;;;;;;;;;;;;;;5.86;94.67;98951.00;4947538;29;20346;-82
2021/10/29 11:59:14;;;;;;;;;;;;;;;5.93;95.46;98947.22;4947753;29;19991;-82
2021/10/29 12:07:21;;;;;;;;;;;;;;;5.96;95.47;98936.63;4947760;29;19965;-85
2021/10/29 12:09:51;;;;;;;;;;;;;;;5.99;95.77;98933.03;4945786;29;19927;-83
2021/10/29 12:12:19;;;;;;;;;;;;;;;5.98;95.81;98921.66;4947528;28;19929;-82
2021/10/29 12:14:45;;;;;;;;;;;;;;;6.03;95.90;98923.25;4945880;29;19962;-83
2021/10/29 12:17:33;;;;;;;;;;;;;;;6.04;95.74;98920.56;4946943;29;19919;-83
2021/10/29 12:20:02;;;;;;;;;;;;;;;6.07;96.01;98912.56;4945817;29;20286;-83
2021/10/29 12:25:13;;;;;;;;;;;;;;;6.09;95.97;98917.75;4946078;29;19981;-82
2021/10/29 12:27:45;;;;;;;;;;;;;;;6.10;96.07;98907.19;4946871;29;19923;-81
2021/10/29 12:30:41;;;;;;;;;;;;;;;6.13;96.24;98909.69;4946527;28;19923;-81
2021/10/29 13:03:37;;;;;;;;;;;;;;;6.46;98.85;98863.69;4955745;29;20013;-83
2021/10/29 13:06:05;;;;;;;;;;;;;;;6.39;98.91;98859.59;4936586;29;19940;-83
2021/10/29 13:08:34;;;;;;;;;;;;;;;6.22;98.73;98855.84;4955877;29;20374;-82
2021/10/29 13:11:00;;;;;;;;;;;;;;;5.94;97.72;98856.91;4955740;29;20358;-83
2021/10/29 13:13:30;;;;;;;;;;;;;;;5.70;96.42;98863.97;4955733;29;19921;-83
2021/10/29 13:16:02;;;;;;;;;;;;;;;5.46;95.50;98865.75;4955612;29;19933;-82
2021/10/29 13:18:36;;;;;;;;;;;;;;;5.35;95.28;98860.03;4955708;29;20427;-83
2021/10/29 13:34:41;;;;;;;;;;;;;;;6.30;100.00;98868.72;4954300;29;20025;-83
2021/10/29 13:55:31;;;;;;;;;;;;;;;6.78;100.00;98848.34;4935964;29;19919;-82
2021/10/29 14:30:30;;;;;;;;;;;;;;;4.85;100.00;98839.88;4935274;29;19982;-83
2021/10/29 14:40:20;;;;;;;;;;;;;;;3.82;100.00;98844.94;4935264;29;20301;-83
2021/10/29 14:42:53;;;;;;;;;;;;;;;3.80;100.00;98841.50;4934397;29;20278;-83
2021/10/29 15:30:07;;;;;;;;;;;;;;;2.61;90.77;98823.00;4943991;29;19930;-84
2021/10/29 15:46:22;;;;;;;;;;;;;;;2.65;92.77;98814.19;4931843;29;19945;-84
2021/10/29 15:51:28;;;;;;;;;;;;;;;2.47;92.20;98799.84;4943716;29;19970;-82
2021/10/29 15:53:54;;;;;;;;;;;;;;;2.48;91.67;98800.69;4943503;29;20017;-84
2021/10/29 16:04:02;;;;;;;;;;;;;;;2.40;90.88;98819.19;4943847;29;20338;-82
2021/10/29 16:17:23;;;;;;;;;;;;;;;2.08;89.63;98823.44;4947195;29;20294;-82
2021/10/29 16:19:49;;;;;;;;;;;;;;;2.14;89.99;98814.63;4936362;29;19923;-82
2021/10/29 16:22:19;;;;;;;;;;;;;;;2.30;91.67;98829.03;4929395;29;20600;-82
2021/10/29 16:24:54;;;;;;;;;;;;;;;2.48;93.98;98829.47;4944543;29;19966;-83
2021/10/29 16:27:19;;;;;;;;;;;;;;;2.65;99.47;98826.41;4946994;29;19922;-84
2021/10/29 16:29:46;;;;;;;;;;;;;;;2.81;100.00;98821.63;4947506;29;20410;-82
2021/10/29 16:32:16;;;;;;;;;;;;;;;2.87;100.00;98817.09;4946567;29;19927;-84
2021/10/29 16:34:41;;;;;;;;;;;;;;;2.88;100.00;98815.34;4944075;29;19919;-82
2021/10/29 16:37:07;;;;;;;;;;;;;;;2.96;100.00;98829.06;4946483;29;19925;-83
2021/10/29 16:39:32;;;;;;;;;;;;;;;2.95;100.00;98823.88;4946869;29;19918;-82
2021/10/29 16:41:57;;;;;;;;;;;;;;;3.02;100.00;98828.91;4946784;29;19918;-84
2021/10/29 16:44:23;;;;;;;;;;;;;;;3.05;100.00;98830.59;4946629;29;20367;-85
2021/10/29 16:46:49;;;;;;;;;;;;;;;3.06;100.00;98838.41;4929056;29;19926;-82
2021/10/29 16:49:15;;;;;;;;;;;;;;;3.11;100.00;98826.94;4945739;29;20009;-82
2021/10/29 16:51:40;;;;;;;;;;;;;;;3.19;100.00;98835.41;4945556;29;19930;-83
2021/10/29 16:54:06;;;;;;;;;;;;;;;3.20;100.00;98839.78;4936923;29;20073;-83
2021/10/29 16:56:32;;;;;;;;;;;;;;;3.18;100.00;98838.97;4936088;29;20001;-80
2021/10/29 16:58:57;;;;;;;;;;;;;;;3.18;100.00;98838.97;4936337;29;20426;-80
2021/10/29 17:01:22;;;;;;;;;;;;;;;3.22;100.00;98844.06;4946699;29;19922;-82
2021/10/29 17:03:47;;;;;;;;;;;;;;;3.23;100.00;98844.91;4944870;29;20032;-80
2021/10/29 17:06:13;;;;;;;;;;;;;;;3.26;100.00;98850.06;4945339;29;19919;-80
2021/10/29 17:08:38;;;;;;;;;;;;;;;3.26;100.00;98855.31;4946286;29;20302;-81
2021/10/29 17:11:05;;;;;;;;;;;;;;;3.33;100.00;98861.22;4946597;28;19923;-80
2021/10/29 17:13:30;;;;;;;;;;;;;;;3.32;100.00;98860.38;4945858;28;19923;-80
2021/10/29 17:15:55;;;;;;;;;;;;;;;3.34;100.00;98868.19;4945946;28;19930;-83
2021/10/29 17:18:20;;;;;;;;;;;;;;;3.36;100.00;98866.38;4946311;28;19925;-84
2021/10/29 17:20:46;;;;;;;;;;;;;;;3.39;100.00;98875.00;4944648;28;19946;-83
2021/10/29 17:23:11;;;;;;;;;;;;;;;3.39;100.00;98871.53;4945936;29;20330;-82
2021/10/29 17:25:37;;;;;;;;;;;;;;;3.36;100.00;98877.72;4945867;29;20378;-80
2021/10/29 17:28:02;;;;;;;;;;;;;;;3.38;100.00;98869.81;4928306;29;19957;-82
2021/10/29 17:30:27;;;;;;;;;;;;;;;3.39;100.00;98868.91;4947148;29;19953;-82
2021/10/29 17:32:53;;;;;;;;;;;;;;;3.40;100.00;98870.66;4946112;29;19974;-83
2021/10/29 17:35:19;;;;;;;;;;;;;;;3.42;100.00;98881.94;4944648;29;19954;-83
2021/10/29 17:37:44;;;;;;;;;;;;;;;3.41;100.00;98890.69;4945115;28;19922;-84
2021/10/29 17:40:11;;;;;;;;;;;;;;;3.43;100.00;98892.38;4945528;29;20009;-84
2021/10/29 17:42:36;;;;;;;;;;;;;;;3.44;100.00;98891.44;4945070;28;20403;-83
2021/10/29 17:45:03;;;;;;;;;;;;;;;3.47;100.00;98895.75;4945890;29;20110;-83
2021/10/29 17:47:28;;;;;;;;;;;;;;;3.51;100.00;98901.75;4945994;28;20393;-83
2021/10/29 17:49:54;;;;;;;;;;;;;;;3.49;100.00;98900.94;4946274;28;20013;-83
2021/10/29 17:52:19;;;;;;;;;;;;;;;3.49;100.00;98903.56;4973416;28;19969;-82
2021/10/29 17:54:52;;;;;;;;;;;;;;;3.51;100.00;98907.00;4972761;28;19953;-81
2021/10/29 17:57:18;;;;;;;;;;;;;;;3.51;100.00;98918.34;4972703;28;19922;-83
2021/10/29 17:59:43;;;;;;;;;;;;;;;3.51;100.00;98913.09;4972390;28;20377;-83
2021/10/29 18:02:11;;;;;;;;;;;;;;;3.51;100.00;98915.72;4955229;28;19929;-84
2021/10/29 18:04:37;;;;;;;;;;;;;;;3.57;100.00;98917.28;4954650;28;19922;-83
2021/10/29 18:07:05;;;;;;;;;;;;;;;3.60;100.00;98922.44;4956000;28;20854;-84
2021/10/29 18:09:35;;;;;;;;;;;;;;;3.61;100.00;98921.56;4971044;28;19922;-83
2021/10/29 18:12:00;;;;;;;;;;;;;;;3.62;100.00;98920.63;4969976;28;19923;-83
2021/10/29 18:14:27;;;;;;;;;;;;;;;3.59;100.00;98932.09;4973101;28;20396;-83
2021/10/29 18:16:52;;;;;;;;;;;;;;;3.64;100.00;98930.19;4972974;28;19922;-84
2021/10/29 18:19:17;;;;;;;;;;;;;;;3.64;100.00;98927.56;4951938;28;19937;-83
2021/10/29 18:21:43;;;;;;;;;;;;;;;3.66;100.00;98931.91;4952036;28;19952;-83
2021/10/29 18:24:10;;;;;;;;;;;;;;;3.70;100.00;98929.16;4968147;28;19922;-83
2021/10/29 18:26:35;;;;;;;;;;;;;;;3.72;100.00;98931.72;4953139;28;19926;-83
2021/10/29 18:29:03;;;;;;;;;;;;;;;3.70;100.00;98929.16;4949997;28;19941;-83
2021/10/29 18:31:28;;;;;;;;;;;;;;;3.76;100.00;98930.72;4964896;28;19949;-84
2021/10/29 18:33:53;;;;;;;;;;;;;;;3.77;100.00;98935.94;4964922;28;20013;-83
2021/10/29 18:36:19;;;;;;;;;;;;;;;3.76;100.00;98934.19;4969072;28;19926;-84
2021/10/29 18:38:45;;;;;;;;;;;;;;;3.81;100.00;98936.69;4952453;28;20345;-84
2021/10/29 18:41:10;;;;;;;;;;;;;;;3.82;100.00;98938.44;4953009;28;19922;-83
2021/10/29 18:43:36;;;;;;;;;;;;;;;3.84;100.00;98941.00;4952145;28;19922;-84
2021/10/29 18:46:01;;;;;;;;;;;;;;;3.83;100.00;98942.78;4965085;28;19980;-84
2021/10/29 18:48:26;;;;;;;;;;;;;;;3.84;100.00;98934.00;4964886;28;19922;-83
2021/10/29 18:50:52;;;;;;;;;;;;;;;3.84;100.00;98939.22;4956676;28;20016;-83
2021/10/29 18:53:17;;;;;;;;;;;;;;;3.88;100.00;98940.00;4934180;29;19922;-85
2021/10/29 18:55:42;;;;;;;;;;;;;;;3.88;100.00;98942.63;4944768;29;19915;-84
2021/10/29 18:58:08;;;;;;;;;;;;;;;3.95;99.74;98946.78;4944095;28;20397;-83
2021/10/29 19:00:33;;;;;;;;;;;;;;;3.93;98.99;98941.59;4943755;29;19965;-83
2021/10/29 19:02:59;;;;;;;;;;;;;;;3.94;98.52;98947.69;4932929;29;20040;-84
2021/10/29 19:05:24;;;;;;;;;;;;;;;3.96;97.88;98946.75;4933160;28;20352;-84
2021/10/29 19:07:51;;;;;;;;;;;;;;;4.00;97.55;98947.50;4943208;28;19919;-83
2021/10/29 19:10:17;;;;;;;;;;;;;;;4.00;97.00;98937.91;4941173;29;19926;-82
2021/10/29 19:12:42;;;;;;;;;;;;;;;4.02;96.55;98945.72;4947024;28;20325;-84
2021/10/29 19:15:08;;;;;;;;;;;;;;;4.05;96.33;98939.50;4934493;29;19934;-83
2021/10/29 19:17:33;;;;;;;;;;;;;;;4.04;95.66;98943.91;4944911;29;19930;-83
2021/10/29 19:19:58;;;;;;;;;;;;;;;4.08;95.55;98939.41;4932902;29;20382;-83
2021/10/29 19:22:24;;;;;;;;;;;;;;;4.08;95.10;98940.25;4946446;28;19930;-86
2021/10/29 19:24:50;;;;;;;;;;;;;;;4.14;95.12;98939.25;4944338;28;19929;-84
2021/10/29 19:27:16;;;;;;;;;;;;;;;4.15;94.89;98936.56;4942173;28;19922;-84
2021/10/29 19:29:41;;;;;;;;;;;;;;;4.14;94.49;98931.38;4933732;29;19981;-83
2021/10/29 19:32:10;;;;;;;;;;;;;;;4.15;94.15;98931.31;4963922;28;19923;-85
2021/10/29 19:34:38;;;;;;;;;;;;;;;4.16;93.89;98938.31;4943520;28;19952;-85
2021/10/29 19:37:08;;;;;;;;;;;;;;;4.18;93.51;98931.25;4940542;28;19923;-82
2021/10/29 19:39:51;;;;;;;;;;;;;;;4.22;93.11;98934.63;4941823;28;19919;-83
2021/10/29 19:42:17;;;;;;;;;;;;;;;4.24;92.87;98939.81;4948499;28;20285;-83
2021/10/29 19:44:44;;;;;;;;;;;;;;;4.24;92.86;98939.81;4947885;29;19926;-83
2021/10/29 19:47:10;;;;;;;;;;;;;;;4.27;92.45;98942.34;4946667;29;19926;-85
2021/10/29 19:49:36;;;;;;;;;;;;;;;4.28;92.12;98941.44;4936742;29;20255;-85
2021/10/29 19:52:02;;;;;;;;;;;;;;;4.29;91.98;98935.28;4948834;28;19952;-82
2021/10/29 19:54:36;;;;;;;;;;;;;;;4.32;91.73;98938.69;4964596;28;20319;-84
2021/10/29 19:57:08;;;;;;;;;;;;;;;4.35;91.47;98922.81;4962686;28;19990;-83
2021/10/29 19:59:33;;;;;;;;;;;;;;;4.36;91.21;98921.09;4961690;28;19973;-83
2021/10/29 20:02:00;;;;;;;;;;;;;;;4.42;91.32;98915.66;4943252;28;19922;-85
2021/10/29 20:04:25;;;;;;;;;;;;;;;4.43;91.01;98922.59;4955237;28;19922;-85
2021/10/29 20:06:50;;;;;;;;;;;;;;;4.46;90.81;98924.28;4942087;28;19933;-84
2021/10/29 20:09:16;;;;;;;;;;;;;;;4.45;90.57;98923.44;4958557;28;20323;-84
2021/10/29 20:11:41;;;;;;;;;;;;;;;4.47;90.37;98918.97;4963964;28;19926;-85
2021/10/29 20:14:06;;;;;;;;;;;;;;;4.47;90.17;98926.00;4939115;28;19926;-86
2021/10/29 20:16:32;;;;;;;;;;;;;;;4.49;90.03;98925.03;4943317;28;19937;-84
2021/10/29 20:18:59;;;;;;;;;;;;;;;4.54;90.14;98927.50;4960935;28;19922;-84
2021/10/29 20:21:24;;;;;;;;;;;;;;;4.53;89.84;98920.53;4941336;28;19922;-85
2021/10/29 20:23:56;;;;;;;;;;;;;;;4.55;89.63;98921.38;4945015;28;20271;-84
2021/10/29 20:26:21;;;;;;;;;;;;;;;4.57;89.50;98922.16;4945522;28;19929;-84
2021/10/29 20:28:47;;;;;;;;;;;;;;;4.60;89.39;98918.59;4944861;28;20016;-85
2021/10/29 20:31:12;;;;;;;;;;;;;;;4.64;89.41;98917.56;4944196;28;19933;-85
2021/10/29 20:33:38;;;;;;;;;;;;;;;4.64;89.26;98917.56;4957674;28;19930;-83
2021/10/29 20:36:03;;;;;;;;;;;;;;;4.65;89.34;98916.66;4955974;28;19934;-85
2021/10/29 20:38:28;;;;;;;;;;;;;;;4.67;89.25;98914.84;4959128;28;20378;-84
2021/10/29 20:40:54;;;;;;;;;;;;;;;4.66;88.91;98911.38;4940846;28;20277;-84
2021/10/29 20:43:21;;;;;;;;;;;;;;;4.70;88.91;98912.13;4941356;28;19929;-84
2021/10/29 20:45:48;;;;;;;;;;;;;;;4.73;88.80;98906.78;4946135;28;20366;-83
2021/10/29 20:48:13;;;;;;;;;;;;;;;4.76;88.83;98904.06;4955330;28;19923;-84
2021/10/29 20:50:38;;;;;;;;;;;;;;;4.75;88.52;98906.72;4941009;29;19936;-84
2021/10/29 20:53:04;;;;;;;;;;;;;;;4.80;88.51;98905.66;4933597;29;20016;-84
2021/10/29 20:55:29;;;;;;;;;;;;;;;4.80;88.55;98907.44;4951943;28;20510;-83
2021/10/29 20:57:55;;;;;;;;;;;;;;;4.82;88.34;98911.72;4951486;28;20048;-83
2021/10/29 21:00:20;;;;;;;;;;;;;;;4.84;88.34;98909.91;4951779;29;20270;-83
2021/10/29 21:02:47;;;;;;;;;;;;;;;4.88;88.50;98914.16;4933376;29;19933;-84
2021/10/29 21:05:13;;;;;;;;;;;;;;;4.89;88.19;98907.13;4950682;28;19926;-83
2021/10/29 21:07:38;;;;;;;;;;;;;;;4.89;88.29;98909.75;4951843;28;20028;-84
2021/10/29 21:10:04;;;;;;;;;;;;;;;4.91;88.18;98911.44;4951239;28;20006;-82
2021/10/29 21:12:29;;;;;;;;;;;;;;;4.95;88.24;98911.31;4952279;29;19922;-84
2021/10/29 21:14:56;;;;;;;;;;;;;;;4.97;88.03;98909.50;4952686;28;20351;-84
2021/10/29 21:17:21;;;;;;;;;;;;;;;4.99;88.22;98902.41;4951449;28;19926;-84
2021/10/29 21:19:47;;;;;;;;;;;;;;;4.98;88.08;98905.94;4950790;29;20022;-84
2021/10/29 21:22:12;;;;;;;;;;;;;;;5.00;87.95;98912.88;4951737;28;19930;-83
2021/10/29 21:24:38;;;;;;;;;;;;;;;5.04;88.05;98914.50;4950994;28;20022;-85
2021/10/29 21:27:05;;;;;;;;;;;;;;;5.03;88.18;98910.13;4952385;29;19982;-85
2021/10/29 21:29:30;;;;;;;;;;;;;;;5.07;88.24;98905.63;4952591;29;19918;-84
2021/10/29 21:31:55;;;;;;;;;;;;;;;5.09;88.27;98903.84;4954652;28;19925;-86
2021/10/29 21:34:21;;;;;;;;;;;;;;;5.08;88.20;98907.34;4953153;28;19926;-85
2021/10/29 21:36:46;;;;;;;;;;;;;;;5.11;88.50;98898.53;4952773;28;19977;-86
2021/10/29 21:39:12;;;;;;;;;;;;;;;5.09;88.61;98894.19;4952803;29;19930;-86
2021/10/29 21:41:37;;;;;;;;;;;;;;;5.12;88.77;98898.44;4953042;29;19965;-85
2021/10/29 21:44:03;;;;;;;;;;;;;;;5.13;88.87;98889.66;4954508;29;20015;-86
2021/10/29 21:46:28;;;;;;;;;;;;;;;5.13;88.70;98887.03;4953200;28;19922;-84
2021/10/29 21:48:53;;;;;;;;;;;;;;;5.16;88.72;98881.69;4952184;28;20358;-85
2021/10/29 21:51:19;;;;;;;;;;;;;;;5.18;88.73;98877.22;4957451;28;20397;-84
2021/10/29 21:53:45;;;;;;;;;;;;;;;5.21;88.88;98882.38;4954501;28;20384;-86
2021/10/29 21:56:10;;;;;;;;;;;;;;;5.22;88.93;98876.22;4942918;28;19938;-85
2021/10/29 21:58:35;;;;;;;;;;;;;;;5.25;88.90;98870.00;4960478;28;19952;-85
2021/10/29 22:01:01;;;;;;;;;;;;;;;5.28;88.97;98878.63;4945624;28;19925;-85
2021/10/29 22:03:26;;;;;;;;;;;;;;;5.32;89.03;98875.91;4943576;28;19922;-86
2021/10/29 22:05:52;;;;;;;;;;;;;;;5.30;88.96;98873.31;4943827;28;19918;-87
2021/10/29 22:08:17;;;;;;;;;;;;;;;5.33;89.05;98877.59;4946704;28;20045;-85
2021/10/29 22:10:46;;;;;;;;;;;;;;;5.36;89.12;98874.84;4959169;28;19926;-86
2021/10/29 22:13:11;;;;;;;;;;;;;;;5.37;89.07;98876.59;4958485;28;20086;-85
2021/10/29 22:15:37;;;;;;;;;;;;;;;5.39;89.22;98866.88;4942574;28;20038;-85
2021/10/29 22:18:02;;;;;;;;;;;;;;;5.42;89.11;98872.00;4943204;28;19929;-85
2021/10/29 22:20:28;;;;;;;;;;;;;;;5.44;89.28;98875.44;4960264;28;20355;-85
2021/10/29 22:22:54;;;;;;;;;;;;;;;5.44;89.13;98878.06;4959307;28;19926;-86
2021/10/29 22:25:19;;;;;;;;;;;;;;;5.45;89.11;98882.41;4943421;28;19918;-85
2021/10/29 22:27:46;;;;;;;;;;;;;;;5.48;89.15;98884.94;4944877;28;19945;-85
2021/10/29 22:30:12;;;;;;;;;;;;;;;5.51;89.17;98881.34;4943357;28;19973;-86
2021/10/29 22:32:38;;;;;;;;;;;;;;;5.51;89.15;98876.94;4943581;28;19922;-86
2021/10/29 22:35:05;;;;;;;;;;;;;;;5.53;89.16;98869.84;4959992;28;19930;-85
2021/10/29 22:37:30;;;;;;;;;;;;;;;5.56;89.19;98877.63;4943333;28;19968;-85
2021/10/29 22:39:55;;;;;;;;;;;;;;;5.57;89.33;98871.47;4960901;28;19962;-83
2021/10/29 22:42:21;;;;;;;;;;;;;;;5.59;89.40;98871.41;4961413;28;20290;-84
2021/10/29 22:44:46;;;;;;;;;;;;;;;5.73;89.80;98870.91;4962408;28;19922;-85
2021/10/29 22:47:14;;;;;;;;;;;;;;;5.77;90.50;98868.06;4945201;28;20398;-88
2021/10/29 22:49:39;;;;;;;;;;;;;;;5.71;90.55;98868.31;4942788;28;19926;-87
2021/10/29 22:52:05;;;;;;;;;;;;;;;5.68;90.48;98857.06;4956226;28;19989;-85
2021/10/29 22:54:30;;;;;;;;;;;;;;;5.70;90.43;98863.13;4971470;28;20267;-87
2021/10/29 22:56:55;;;;;;;;;;;;;;;5.69;90.28;98862.25;4960089;28;19926;-86
2021/10/29 22:59:21;;;;;;;;;;;;;;;5.68;90.08;98859.69;4969610;28;19976;-86
2021/10/29 23:01:46;;;;;;;;;;;;;;;5.70;90.27;98847.34;4958890;28;20017;-88
2021/10/29 23:04:11;;;;;;;;;;;;;;;5.74;90.20;98849.78;4957813;28;20029;-86
2021/10/29 23:06:37;;;;;;;;;;;;;;;5.75;90.28;98853.28;4956465;28;19926;-87
2021/10/29 23:09:04;;;;;;;;;;;;;;;5.79;90.17;98846.97;4965321;28;19922;-86
2021/10/29 23:11:29;;;;;;;;;;;;;;;5.79;90.02;98852.25;4966817;28;19922;-88